Valdemoro, Spain
Current Conditions -  °F | °C
As of 11:00 AM on Tuesday 21 Oct 2014 (Local Time) from LEGT Reporting Station
Clear Clear  
Wind Chill: 64°   Ceiling: Unl
Heat Index: 64°   Visibility: 6mi
Dew Point: 52°   Wind: 2mph
Humidity: 64%   Direction: 40°NE
Pressure: 30.36"   Gusts: NA
Location:  40.19°N, 3.68°W
Report Text: LEGT 210900Z 04002KT CAVOK 18/11 Q1028
Loading
Personal Weather Stations






























Interactive Weather Map
Tropical Storm Tracking
New forecast layout! Learn more

10-Day Weather Forecast

Advertisements
Track Severe Weather on mobile